Terminal Aerodrome Forecast
Issued by NWS Charleston, WV

Current Version | Previous Version | Text Only | Print | Product List | Glossary Off
Versions: 1 2 3 4 5 6 7 8 9 10 11 12 13 14 15 16 17 18 19 20 21 22 23 24 25 26

544
FTUS41 KRLX 140928 AAA
TAFPKB
TAF AMD
KPKB 140928Z 1409/1506 04004KT 5SM -RA OVC030
     FM141400 VRB02KT 2SM -RA OVC009
     FM150300 VRB03KT 4SM BR OVC009=

USA.gov is the U.S. government's official web portal to all federal, state and local government web resources and services.